Time;durP1;ratioP1;P1;durP2;ratioP2;P2;SDS_P1;SDS_P2;PMS_P1;PMS_P2;Temp;Humidity;BMP_temperature;BMP_pressure;BME280_temperature;BME280_humidity;BME280_pressure;Samples;Min_cycle;Max_cycle;Signal;HPM_P1;HPM_P2
2022/01/02 00:01:35;;;;;;;43.65;22.67;;;;;;;0.41;100.00;97458.25;5019052;28;20048;-63
2022/01/02 00:04:02;;;;;;;53.28;22.38;;;;;;;0.37;100.00;97459.91;5017170;28;20461;-63
2022/01/02 00:06:31;;;;;;;83.63;21.52;;;;;;;0.13;100.00;97457.91;5012278;28;20045;-60
2022/01/02 00:09:07;;;;;;;74.70;22.08;;;;;;;-0.26;100.00;97461.38;5016543;28;20057;-63
2022/01/02 00:11:33;;;;;;;102.63;24.98;;;;;;;-0.60;100.00;97466.66;5015952;28;20054;-62
2022/01/02 00:14:08;;;;;;;150.50;26.20;;;;;;;-0.68;100.00;97459.19;5015674;28;20456;-63
2022/01/02 00:16:36;;;;;;;131.73;25.90;;;;;;;-0.71;100.00;97454.34;4997994;28;20057;-63
2022/01/02 00:19:08;;;;;;;184.35;30.23;;;;;;;-0.85;100.00;97446.03;5015377;28;20087;-63
2022/01/02 00:21:42;;;;;;;127.07;28.70;;;;;;;-0.96;100.00;97453.34;4997849;28;20045;-63
2022/01/02 00:24:12;;;;;;;178.05;29.27;;;;;;;-1.11;100.00;97451.50;5012407;28;20059;-63
2022/01/02 00:26:44;;;;;;;135.70;29.92;;;;;;;-1.22;100.00;97449.91;5016716;28;20279;-63
2022/01/02 00:29:11;;;;;;;134.05;29.80;;;;;;;-1.36;100.00;97445.06;5011598;28;20069;-61
2022/01/02 00:31:39;;;;;;;121.97;30.98;;;;;;;-1.33;100.00;97441.06;5016335;28;20124;-65
2022/01/02 00:34:06;;;;;;;143.85;30.45;;;;;;;-1.36;100.00;97444.28;5014403;28;20069;-63
2022/01/02 00:36:32;;;;;;;194.88;33.97;;;;;;;-1.35;100.00;97457.44;5018303;28;20103;-64
2022/01/02 00:38:57;;;;;;;107.03;30.48;;;;;;;-1.24;100.00;97452.03;5010550;28;20042;-64
2022/01/02 00:41:57;;;;;;;78.53;29.00;;;;;;;-1.06;100.00;97446.09;5013575;28;20449;-64
2022/01/02 00:44:37;;;;;;;73.65;26.90;;;;;;;-0.77;100.00;97443.59;5001502;28;20616;-64
2022/01/02 00:47:14;;;;;;;60.53;27.05;;;;;;;-0.63;100.00;97443.81;5015876;28;20042;-64
2022/01/02 00:49:45;;;;;;;69.10;28.83;;;;;;;-0.39;100.00;97448.53;5018884;28;20108;-62
2022/01/02 00:52:17;;;;;;;65.47;26.92;;;;;;;-0.23;100.00;97454.66;5012048;28;20042;-63
2022/01/02 00:54:46;;;;;;;64.45;26.98;;;;;;;-0.01;100.00;97449.66;4997777;28;20168;-62
2022/01/02 00:57:29;;;;;;;65.80;27.05;;;;;;;0.11;100.00;97461.97;5005779;28;20095;-63
2022/01/02 01:00:04;;;;;;;66.68;27.10;;;;;;;0.25;100.00;97457.56;5014696;28;20041;-63
2022/01/02 01:02:42;;;;;;;85.15;27.27;;;;;;;0.25;100.00;97452.16;5014145;28;20394;-63
2022/01/02 01:05:09;;;;;;;120.85;27.40;;;;;;;-0.05;100.00;97450.50;5005626;28;20052;-63
2022/01/02 01:07:36;;;;;;;143.65;29.17;;;;;;;-0.43;100.00;97445.59;5012513;28;20037;-63
2022/01/02 01:10:03;;;;;;;181.20;28.83;;;;;;;-0.63;100.00;97440.28;5018488;28;21312;-64
2022/01/02 01:12:30;;;;;;;125.65;29.00;;;;;;;-0.72;100.00;97431.19;5012932;28;20053;-64
2022/01/02 01:14:56;;;;;;;298.25;33.47;;;;;;;-0.82;100.00;97438.22;5014565;28;20609;-64
2022/01/02 01:17:21;;;;;;;186.05;33.47;;;;;;;-0.81;100.00;97417.50;5005781;28;20038;-63
2022/01/02 01:19:49;;;;;;;203.63;34.45;;;;;;;-0.83;100.00;97415.13;4997137;28;20046;-65
2022/01/02 01:22:15;;;;;;;195.05;34.15;;;;;;;-0.73;100.00;97410.78;5009949;28;20410;-64
2022/01/02 01:24:41;;;;;;;296.92;37.08;;;;;;;-0.62;100.00;97415.81;5018207;28;20044;-62
2022/01/02 01:27:08;;;;;;;235.52;37.85;;;;;;;-0.54;100.00;97409.06;5009810;28;20049;-63
2022/01/02 01:29:35;;;;;;;106.97;32.13;;;;;;;-0.50;100.00;97404.72;5012403;28;20034;-63
2022/01/02 01:32:02;;;;;;;265.13;36.92;;;;;;;-0.48;100.00;97399.06;5013033;28;20026;-65
2022/01/02 01:34:28;;;;;;;241.48;34.97;;;;;;;-0.44;100.00;97406.28;5011262;28;20046;-65
2022/01/02 01:36:53;;;;;;;150.88;33.88;;;;;;;-0.32;100.00;97411.34;5016086;28;20555;-64
2022/01/02 01:39:18;;;;;;;91.82;31.77;;;;;;;-0.14;100.00;97430.66;5008574;28;20128;-66
2022/01/02 01:41:46;;;;;;;95.50;29.90;;;;;;;0.21;100.00;97426.09;5011785;28;20041;-65
2022/01/02 01:46:38;;;;;;;137.00;30.40;;;;;;;0.17;100.00;97429.31;5014897;28;20049;-63
2022/01/02 01:49:26;;;;;;;126.80;30.23;;;;;;;0.16;100.00;97429.59;5014459;28;20045;-62
2022/01/02 01:51:52;;;;;;;143.93;30.42;;;;;;;0.25;100.00;97427.13;5017795;28;20041;-62
2022/01/02 01:54:18;;;;;;;73.60;27.27;;;;;;;0.49;100.00;97432.59;5013713;28;21188;-61
2022/01/02 01:56:45;;;;;;;69.22;26.38;;;;;;;0.66;100.00;97414.09;5018714;28;20132;-64
2022/01/02 01:59:11;;;;;;;63.90;27.58;;;;;;;0.65;100.00;97412.50;5011890;28;20073;-62
2022/01/02 02:01:36;;;;;;;76.85;27.52;;;;;;;0.69;100.00;97418.13;5017308;28;20042;-63
2022/01/02 02:04:02;;;;;;;267.27;34.28;;;;;;;0.61;100.00;97424.91;5017431;28;20036;-62
2022/01/02 02:06:28;;;;;;;70.05;27.27;;;;;;;0.63;100.00;97424.63;5013076;28;20883;-62
2022/01/02 02:08:56;;;;;;;220.57;29.02;;;;;;;0.55;100.00;97424.16;5020516;28;20041;-63
2022/01/02 02:11:23;;;;;;;183.98;30.13;;;;;;;0.33;100.00;97430.00;5011597;28;20906;-63
2022/01/02 02:13:49;;;;;;;67.60;24.83;;;;;;;0.32;100.00;97420.31;5013259;28;20096;-62
2022/01/02 02:16:15;;;;;;;206.07;30.63;;;;;;;0.29;100.00;97412.81;5015248;28;20042;-65
2022/01/02 02:18:40;;;;;;;55.63;25.58;;;;;;;0.24;100.00;97415.53;5033135;28;20103;-65
2022/01/02 02:21:06;;;;;;;57.78;24.05;;;;;;;0.39;100.00;97422.69;5019791;28;20029;-65
2022/01/02 02:23:31;;;;;;;53.10;23.20;;;;;;;0.50;100.00;97415.31;5018241;28;20041;-64
2022/01/02 02:25:57;;;;;;;50.75;22.75;;;;;;;0.59;100.00;97418.22;5014117;28;20098;-65
2022/01/02 02:28:26;;;;;;;46.33;22.45;;;;;;;0.47;100.00;97421.25;5010271;28;20419;-65
2022/01/02 02:30:52;;;;;;;48.93;22.53;;;;;;;0.50;100.00;97415.31;5019925;28;20041;-65
2022/01/02 02:33:18;;;;;;;63.28;23.42;;;;;;;0.06;100.00;97406.25;5015173;28;20045;-65
2022/01/02 02:35:46;;;;;;;42.83;21.88;;;;;;;-0.15;100.00;97400.19;5018010;28;20033;-65
2022/01/02 02:38:12;;;;;;;44.72;21.42;;;;;;;0.07;100.00;97401.66;5012259;28;20048;-65
2022/01/02 02:40:39;;;;;;;47.95;22.42;;;;;;;0.17;100.00;97402.38;5016039;28;20572;-65
2022/01/02 02:43:22;;;;;;;47.83;23.63;;;;;;;0.22;100.00;97390.78;5009452;28;20041;-65
2022/01/02 02:51:29;;;;;;;48.75;21.30;;;;;;;0.17;100.00;97378.13;5011631;28;20057;-66
2022/01/02 02:53:55;;;;;;;42.53;22.63;;;;;;;0.11;100.00;97373.06;5021782;28;20054;-66
2022/01/02 02:57:11;;;;;;;41.35;20.60;;;;;;;0.08;100.00;97362.88;5019068;28;20045;-66
2022/01/02 02:59:11;;;;;;;43.47;20.40;;;;;;;-0.02;100.00;97369.13;5003504;28;20068;-66
2022/01/02 03:01:37;;;;;;;61.17;19.25;;;;;;;-0.11;100.00;97366.25;5018243;28;20041;-65
2022/01/02 03:04:03;;;;;;;39.65;19.35;;;;;;;-0.22;100.00;97356.63;5015575;28;20502;-66
2022/01/02 03:06:28;;;;;;;37.67;19.17;;;;;;;-0.33;100.00;97347.81;5015098;28;20037;-63
2022/01/02 03:08:54;;;;;;;116.25;20.15;;;;;;;-1.09;100.00;97355.22;5020096;28;20072;-64
2022/01/02 03:11:21;;;;;;;42.65;19.95;;;;;;;-1.21;100.00;97350.16;5012389;28;20433;-64
2022/01/02 03:13:49;;;;;;;38.03;19.20;;;;;;;-0.99;100.00;97340.94;5035234;28;20152;-65
2022/01/02 03:16:16;;;;;;;45.10;21.38;;;;;;;-0.92;100.00;97346.03;5011309;28;20037;-64
2022/01/02 03:18:41;;;;;;;60.65;20.38;;;;;;;-0.90;100.00;97346.53;5017990;28;20034;-65
2022/01/02 03:21:08;;;;;;;41.75;20.80;;;;;;;-0.67;100.00;97358.53;5008842;28;20041;-64
2022/01/02 03:23:34;;;;;;;46.70;20.25;;;;;;;-0.55;100.00;97350.13;5019030;28;20128;-64
2022/01/02 03:26:00;;;;;;;44.63;21.30;;;;;;;-0.53;100.00;97342.59;5015968;28;20461;-64
2022/01/02 03:28:25;;;;;;;52.90;19.38;;;;;;;-0.55;100.00;97337.47;5006066;28;20043;-64
2022/01/02 03:30:51;;;;;;;43.75;19.40;;;;;;;-0.51;100.00;97337.72;5018776;28;20102;-64
2022/01/02 03:33:17;;;;;;;35.70;18.95;;;;;;;-0.48;100.00;97332.59;5008513;28;20042;-65
2022/01/02 03:35:42;;;;;;;36.20;18.48;;;;;;;-0.33;100.00;97334.38;5016495;28;20040;-64
2022/01/02 03:38:09;;;;;;;39.33;19.52;;;;;;;-0.21;100.00;97334.81;5009954;28;20099;-65
2022/01/02 03:40:35;;;;;;;35.72;18.85;;;;;;;-0.07;100.00;97336.88;5011300;28;20390;-65
2022/01/02 03:43:03;;;;;;;34.75;18.52;;;;;;;-0.01;100.00;97333.06;5017140;28;20087;-65
2022/01/02 03:45:28;;;;;;;32.28;17.30;;;;;;;0.05;100.00;97337.28;5005593;28;20100;-65
2022/01/02 03:47:54;;;;;;;27.98;15.77;;;;;;;0.10;100.00;97321.09;5018607;28;20045;-66
2022/01/02 03:50:19;;;;;;;32.90;17.95;;;;;;;0.06;100.00;97328.16;5008873;28;20057;-66
2022/01/02 03:52:45;;;;;;;31.77;18.35;;;;;;;0.17;100.00;97316.19;5017789;28;20037;-66
2022/01/02 03:55:11;;;;;;;34.58;17.73;;;;;;;0.15;100.00;97321.06;5009957;28;20045;-66
2022/01/02 03:57:37;;;;;;;43.13;17.23;;;;;;;-0.01;100.00;97308.81;5013210;28;20399;-66
2022/01/02 04:00:09;;;;;;;33.63;16.15;;;;;;;0.07;100.00;97310.09;5016059;28;20033;-68
2022/01/02 04:02:37;;;;;;;30.70;17.15;;;;;;;0.11;100.00;97301.16;5011412;28;20097;-65
2022/01/02 04:05:05;;;;;;;30.92;17.45;;;;;;;0.04;100.00;97305.25;5019168;28;20398;-66
2022/01/02 04:07:30;;;;;;;36.08;17.25;;;;;;;0.16;100.00;97308.38;5013919;28;20697;-65
2022/01/02 04:10:00;;;;;;;30.85;16.05;;;;;;;0.25;100.00;97303.97;5013839;28;20121;-65
2022/01/02 04:12:26;;;;;;;33.90;17.52;;;;;;;0.27;100.00;97292.91;5012178;28;20102;-65
2022/01/02 04:14:52;;;;;;;34.10;16.52;;;;;;;0.27;100.00;97290.22;4999524;28;20041;-65
2022/01/02 04:17:17;;;;;;;64.07;17.13;;;;;;;0.09;100.00;97287.19;5007407;28;20038;-65
2022/01/02 04:19:43;;;;;;;32.20;17.02;;;;;;;0.04;100.00;97286.41;5015275;28;20117;-65
2022/01/02 04:22:08;;;;;;;35.35;17.70;;;;;;;0.18;100.00;97276.56;5011320;28;20048;-65
2022/01/02 04:24:34;;;;;;;127.55;19.20;;;;;;;0.09;100.00;97270.19;5011355;28;20092;-64
2022/01/02 04:26:59;;;;;;;77.47;18.00;;;;;;;-0.19;100.00;97275.31;5017205;28;20030;-65
2022/01/02 04:29:25;;;;;;;46.97;16.58;;;;;;;-0.45;100.00;97272.84;5001082;28;20037;-65
2022/01/02 04:31:50;;;;;;;93.93;18.17;;;;;;;-0.64;100.00;97267.31;5015049;28;20033;-66
2022/01/02 04:34:15;;;;;;;73.47;19.98;;;;;;;-0.56;100.00;97257.03;5003703;28;20067;-66
2022/01/02 04:36:41;;;;;;;43.50;19.08;;;;;;;-0.25;100.00;97265.69;5014866;28;20065;-65
2022/01/02 04:39:06;;;;;;;209.68;21.83;;;;;;;-0.65;100.00;97271.09;5008341;28;20045;-66
2022/01/02 04:41:32;;;;;;;160.43;21.13;;;;;;;-0.80;100.00;97265.81;5010663;28;20052;-64
2022/01/02 04:43:57;;;;;;;46.47;19.33;;;;;;;-0.84;100.00;97265.56;4993531;28;20038;-65
2022/01/02 04:46:23;;;;;;;147.38;22.35;;;;;;;-1.08;100.00;97257.38;4988215;28;20935;-65
2022/01/02 04:48:48;;;;;;;156.57;23.05;;;;;;;-1.32;100.00;97248.34;5010763;28;20091;-66
2022/01/02 04:51:13;;;;;;;227.73;24.88;;;;;;;-1.45;100.00;97241.69;5004543;28;20044;-66
2022/01/02 04:53:47;;;;;;;199.38;25.42;;;;;;;-1.46;100.00;97248.13;5012750;28;20044;-65
2022/01/02 04:56:12;;;;;;;241.13;27.55;;;;;;;-1.47;100.00;97249.25;5013735;28;20129;-66
2022/01/02 04:58:37;;;;;;;221.88;28.30;;;;;;;-1.54;100.00;97241.47;5012752;28;20128;-65
2022/01/02 05:01:03;;;;;;;193.65;28.38;;;;;;;-1.55;100.00;97237.16;5011142;28;20048;-66
2022/01/02 05:03:28;;;;;;;201.32;28.13;;;;;;;-1.58;100.00;97226.97;5027275;28;20049;-65
2022/01/02 05:05:54;;;;;;;56.08;24.20;;;;;;;-1.46;100.00;97229.34;5006321;28;20034;-65
2022/01/02 05:08:19;;;;;;;67.50;23.95;;;;;;;-1.14;100.00;97228.09;5011886;28;20037;-65
2022/01/02 05:10:45;;;;;;;64.13;22.70;;;;;;;-0.85;100.00;97228.19;5015618;28;20120;-64
2022/01/02 05:13:10;;;;;;;59.45;22.85;;;;;;;-0.63;100.00;97230.44;5011279;28;20037;-64
2022/01/02 05:15:36;;;;;;;69.00;25.25;;;;;;;-0.59;100.00;97220.75;4998263;28;20033;-65
2022/01/02 05:18:01;;;;;;;57.85;22.35;;;;;;;-0.50;100.00;97234.41;5003537;28;20493;-65
2022/01/02 05:20:27;;;;;;;51.15;22.65;;;;;;;-0.42;100.00;97228.41;5011744;28;20044;-65
2022/01/02 05:22:52;;;;;;;75.35;22.25;;;;;;;-0.55;100.00;97224.47;4993125;28;20049;-65
2022/01/02 05:25:18;;;;;;;61.25;22.80;;;;;;;-0.51;100.00;97228.19;5011839;28;20038;-65
2022/01/02 05:27:44;;;;;;;49.90;21.15;;;;;;;-0.44;100.00;97231.38;5018900;28;20045;-65
2022/01/02 05:30:10;;;;;;;44.42;20.77;;;;;;;-0.30;100.00;97244.19;5015480;28;20037;-65
2022/01/02 05:32:35;;;;;;;74.88;21.42;;;;;;;-0.24;100.00;97238.44;5021015;28;20048;-64
2022/01/02 05:35:02;;;;;;;53.58;21.02;;;;;;;-0.23;100.00;97241.97;5014202;28;20101;-65
2022/01/02 05:37:27;;;;;;;41.80;20.20;;;;;;;-0.23;100.00;97250.84;5004878;28;20610;-64
2022/01/02 05:39:53;;;;;;;52.53;20.38;;;;;;;-0.18;100.00;97251.88;5020479;28;20053;-64
2022/01/02 05:42:19;;;;;;;40.95;19.65;;;;;;;-0.15;100.00;97245.94;5007769;28;20034;-64
2022/01/02 05:44:44;;;;;;;39.20;19.23;;;;;;;-0.07;100.00;97256.91;5010325;28;20394;-64
2022/01/02 05:47:09;;;;;;;39.78;20.17;;;;;;;-0.12;100.00;97242.69;5010526;28;20556;-65
2022/01/02 05:49:35;;;;;;;72.40;20.42;;;;;;;-0.32;100.00;97240.97;5019439;28;20443;-67
2022/01/02 05:52:01;;;;;;;71.32;19.73;;;;;;;-0.55;100.00;97239.81;5017238;28;20038;-65
2022/01/02 05:54:26;;;;;;;78.97;19.58;;;;;;;-0.89;100.00;97227.94;4998731;28;20069;-65
2022/01/02 05:56:52;;;;;;;128.88;21.63;;;;;;;-0.94;100.00;97233.34;5021043;28;20037;-65
2022/01/02 05:59:17;;;;;;;83.45;20.17;;;;;;;-0.99;100.00;97228.00;5009730;28;20579;-64
2022/01/02 06:01:43;;;;;;;40.50;18.23;;;;;;;-0.74;100.00;97234.28;5019640;28;20120;-66
2022/01/02 06:04:08;;;;;;;40.10;17.85;;;;;;;-0.45;100.00;97226.25;5012509;28;20098;-65
2022/01/02 06:06:34;;;;;;;37.78;17.52;;;;;;;-0.25;100.00;97226.09;5018114;28;20037;-66
2022/01/02 06:08:59;;;;;;;47.42;17.02;;;;;;;-0.10;100.00;97235.91;5018270;28;20466;-64
2022/01/02 06:11:25;;;;;;;39.15;18.40;;;;;;;-0.14;100.00;97224.13;5012841;28;20049;-65
2022/01/02 06:13:50;;;;;;;43.60;17.33;;;;;;;-0.07;100.00;97232.66;5020749;28;20174;-64
2022/01/02 06:16:16;;;;;;;56.95;18.25;;;;;;;-0.06;100.00;97228.84;5007469;28;20395;-65
2022/01/02 06:18:41;;;;;;;33.85;16.98;;;;;;;-0.12;100.00;97232.69;5019651;28;20069;-65
2022/01/02 06:21:07;;;;;;;71.30;18.73;;;;;;;-0.13;100.00;97225.69;5014905;28;20056;-64
2022/01/02 06:23:32;;;;;;;43.28;18.05;;;;;;;-0.09;100.00;97223.25;5020018;28;20033;-65
2022/01/02 06:26:02;;;;;;;51.87;18.33;;;;;;;-0.04;100.00;97220.50;5019128;28;20125;-65
2022/01/02 06:28:28;;;;;;;246.40;23.25;;;;;;;-0.51;100.00;97214.75;5006615;28;20792;-66
2022/01/02 06:30:53;;;;;;;57.97;19.02;;;;;;;-0.66;100.00;97204.91;5019463;28;20124;-66
2022/01/02 06:33:18;;;;;;;184.45;22.20;;;;;;;-1.20;100.00;97205.84;5014926;28;20064;-65
2022/01/02 06:35:44;;;;;;;174.82;24.17;;;;;;;-1.15;100.00;97205.81;5019260;28;20037;-64
2022/01/02 06:38:17;;;;;;;46.65;20.48;;;;;;;-0.93;100.00;97204.59;5013376;28;20434;-66
2022/01/02 06:40:43;;;;;;;48.58;20.80;;;;;;;-0.78;100.00;97207.94;5017451;28;20133;-65
2022/01/02 06:43:09;;;;;;;49.05;19.38;;;;;;;-0.42;100.00;97207.66;5008957;28;20128;-64
2022/01/02 06:45:35;;;;;;;112.88;21.48;;;;;;;-0.28;100.00;97218.59;5018818;28;20462;-63
2022/01/02 06:48:03;;;;;;;48.00;18.67;;;;;;;-0.22;100.00;97214.78;5019950;28;20041;-63
2022/01/02 06:50:28;;;;;;;56.22;20.42;;;;;;;-0.06;100.00;97220.00;5009191;28;20659;-64
2022/01/02 06:52:53;;;;;;;44.42;18.25;;;;;;;0.03;100.00;97210.19;5017875;28;20124;-63
2022/01/02 06:55:19;;;;;;;44.53;18.35;;;;;;;-0.03;100.00;97206.75;5010171;28;20505;-64
2022/01/02 06:57:44;;;;;;;45.60;20.33;;;;;;;0.04;100.00;97208.28;5020689;28;20399;-63
2022/01/02 07:00:10;;;;;;;42.70;18.85;;;;;;;0.06;100.00;97216.91;5011955;28;20037;-64
2022/01/02 07:02:35;;;;;;;38.22;16.52;;;;;;;0.07;100.00;97223.91;5025168;28;20048;-64
2022/01/02 07:05:01;;;;;;;45.40;19.20;;;;;;;0.05;100.00;97218.00;5015850;28;20565;-62
2022/01/02 07:07:27;;;;;;;45.95;18.08;;;;;;;0.02;100.00;97224.75;5012616;28;20208;-63
2022/01/02 07:09:52;;;;;;;131.50;20.35;;;;;;;0.05;100.00;97232.25;5020205;28;20075;-63
2022/01/02 07:12:18;;;;;;;78.20;20.08;;;;;;;0.04;100.00;97238.75;5011304;28;20157;-64
2022/01/02 07:14:43;;;;;;;50.80;18.17;;;;;;;0.08;100.00;97239.78;5000185;28;20096;-64
2022/01/02 07:17:09;;;;;;;61.67;17.05;;;;;;;0.24;100.00;97253.09;5012433;28;20045;-64
2022/01/02 07:19:34;;;;;;;57.88;17.92;;;;;;;0.26;100.00;97251.72;5014568;28;20363;-63
2022/01/02 07:22:00;;;;;;;84.53;18.73;;;;;;;0.17;100.00;97253.44;5019273;28;20038;-65
2022/01/02 07:24:26;;;;;;;39.42;18.52;;;;;;;0.24;100.00;97250.41;5011546;28;20037;-66
2022/01/02 07:26:51;;;;;;;52.72;17.52;;;;;;;0.26;100.00;97240.13;5000885;28;20191;-66
2022/01/02 07:29:18;;;;;;;44.40;18.52;;;;;;;0.34;100.00;97234.94;5014717;28;20048;-66
2022/01/02 07:31:44;;;;;;;38.72;18.83;;;;;;;0.35;100.00;97236.50;5017862;28;20034;-66
2022/01/02 07:34:09;;;;;;;162.05;20.83;;;;;;;0.29;100.00;97231.47;5017868;28;20044;-64
2022/01/02 07:36:35;;;;;;;62.08;17.85;;;;;;;0.25;100.00;97231.22;5029612;28;20072;-64
2022/01/02 07:39:00;;;;;;;142.73;22.80;;;;;;;-0.27;100.00;97232.84;5020185;28;20509;-63
2022/01/02 07:41:26;;;;;;;211.60;21.52;;;;;;;-0.40;100.00;97245.06;5014427;28;20041;-65
2022/01/02 07:43:53;;;;;;;43.65;18.98;;;;;;;-0.19;100.00;97237.63;5012785;28;20071;-64
2022/01/02 07:46:19;;;;;;;47.53;17.90;;;;;;;0.08;100.00;97236.28;5001560;28;20050;-64
2022/01/02 07:48:44;;;;;;;203.98;23.63;;;;;;;-0.08;100.00;97230.25;5017833;28;20552;-65
2022/01/02 07:51:10;;;;;;;71.70;18.95;;;;;;;-0.13;100.00;97224.91;5012551;28;20230;-65
2022/01/02 07:53:35;;;;;;;135.00;22.10;;;;;;;-0.16;100.00;97228.16;5001442;28;20041;-65
2022/01/02 07:56:00;;;;;;;204.77;25.42;;;;;;;-0.47;100.00;97226.56;5017785;28;20037;-65
2022/01/02 07:58:26;;;;;;;232.43;26.48;;;;;;;-0.64;100.00;97221.56;5005125;28;20420;-65
2022/01/02 08:00:51;;;;;;;158.10;22.05;;;;;;;-0.71;100.00;97226.47;5016731;28;20052;-65
2022/01/02 08:03:17;;;;;;;166.65;22.83;;;;;;;-0.78;100.00;97221.41;4991678;28;20080;-65
2022/01/02 08:05:43;;;;;;;137.55;22.30;;;;;;;-0.94;100.00;97219.09;5015070;28;20481;-64
2022/01/02 08:08:09;;;;;;;249.65;29.08;;;;;;;-0.93;100.00;97218.84;5012641;28;20045;-66
2022/01/02 08:10:34;;;;;;;179.70;24.77;;;;;;;-0.90;100.00;97229.03;5012873;28;20132;-65
2022/01/02 08:13:00;;;;;;;228.05;26.38;;;;;;;-0.79;100.00;97222.50;5018180;28;20042;-66
2022/01/02 08:15:25;;;;;;;218.70;28.42;;;;;;;-0.91;100.00;97211.28;5008348;28;20729;-66
2022/01/02 08:17:51;;;;;;;211.38;25.65;;;;;;;-0.96;100.00;97211.31;4999798;28;20125;-66
2022/01/02 08:20:16;;;;;;;121.50;23.08;;;;;;;-0.84;100.00;97222.53;4990630;28;20108;-65
2022/01/02 08:22:42;;;;;;;244.93;26.90;;;;;;;-0.83;100.00;97215.25;5015909;28;20045;-66
2022/01/02 08:25:07;;;;;;;340.75;54.05;;;;;;;-0.83;100.00;97209.88;5011397;28;20045;-66
2022/01/02 08:27:33;;;;;;;275.48;33.25;;;;;;;-0.73;100.00;97215.19;5020888;28;20081;-65
2022/01/02 08:29:58;;;;;;;252.70;26.88;;;;;;;-0.59;100.00;97212.66;5018660;28;20121;-65
2022/01/02 08:32:24;;;;;;;78.10;23.38;;;;;;;-0.35;100.00;97223.50;4982204;28;21119;-64
2022/01/02 08:34:50;;;;;;;65.30;23.30;;;;;;;0.16;100.00;97232.94;5017437;28;20025;-65
2022/01/02 08:37:16;;;;;;;81.45;23.45;;;;;;;0.47;100.00;97227.22;5011124;28;20045;-65
2022/01/02 08:39:43;;;;;;;94.35;21.88;;;;;;;0.69;100.00;97222.09;5015419;28;20128;-65
2022/01/02 08:42:09;;;;;;;52.67;21.75;;;;;;;0.89;100.00;97217.53;5001280;28;20050;-65
2022/01/02 08:44:38;;;;;;;109.97;24.65;;;;;;;1.02;100.00;97226.78;5019239;28;20038;-64
2022/01/02 08:47:04;;;;;;;271.92;31.77;;;;;;;1.07;100.00;97227.50;5014651;28;20030;-66
2022/01/02 08:49:29;;;;;;;52.75;23.73;;;;;;;1.03;100.00;97225.69;5014646;28;20095;-65
2022/01/02 08:51:55;;;;;;;143.57;26.20;;;;;;;1.09;100.00;97228.00;5017720;28;20033;-67
2022/01/02 08:54:21;;;;;;;56.85;20.88;;;;;;;1.11;100.00;97228.53;5020102;28;20559;-65
2022/01/02 08:56:47;;;;;;;135.25;24.02;;;;;;;1.37;100.00;97241.66;5021059;28;20487;-63
2022/01/02 08:59:12;;;;;;;36.95;18.17;;;;;;;1.41;100.00;97233.78;5008317;28;20041;-65
2022/01/02 09:01:38;;;;;;;44.17;18.50;;;;;;;1.39;100.00;97241.34;5018216;28;20084;-65
2022/01/02 09:04:03;;;;;;;98.10;22.20;;;;;;;1.42;100.00;97238.84;5020971;28;20034;-66
2022/01/02 09:06:29;;;;;;;55.95;17.02;;;;;;;1.26;100.00;97241.00;5017431;28;20061;-64
2022/01/02 09:08:55;;;;;;;165.27;19.15;;;;;;;1.14;100.00;97236.03;5019568;28;20030;-65
2022/01/02 09:11:21;;;;;;;54.17;15.30;;;;;;;1.13;100.00;97237.16;5014263;28;20033;-66
2022/01/02 09:13:47;;;;;;;47.53;17.10;;;;;;;1.14;100.00;97230.66;5021300;28;20111;-65
2022/01/02 09:16:13;;;;;;;152.35;16.55;;;;;;;0.92;100.00;97233.13;5009075;28;20049;-67
2022/01/02 09:18:38;;;;;;;31.33;15.23;;;;;;;1.32;100.00;97236.34;5019931;28;20037;-67
2022/01/02 09:21:03;;;;;;;68.32;17.35;;;;;;;1.40;100.00;97232.16;5018147;28;20048;-69
2022/01/02 09:23:29;;;;;;;87.35;17.67;;;;;;;1.30;100.00;97225.81;5019028;28;20443;-66
2022/01/02 09:25:55;;;;;;;32.38;14.90;;;;;;;1.47;100.00;97227.19;5019871;28;20102;-67
2022/01/02 09:28:20;;;;;;;28.00;15.57;;;;;;;1.65;100.00;97237.13;5008734;28;20125;-65
2022/01/02 09:30:45;;;;;;;40.80;16.30;;;;;;;1.78;100.00;97224.78;5019186;28;20044;-64
2022/01/02 09:33:11;;;;;;;37.50;14.45;;;;;;;1.81;100.00;97236.91;4991038;28;20045;-65
2022/01/02 09:35:38;;;;;;;26.73;14.10;;;;;;;1.72;100.00;97242.16;5023110;28;20055;-65
2022/01/02 09:38:04;;;;;;;30.25;14.02;;;;;;;1.77;100.00;97242.09;5010125;28;20038;-68
2022/01/02 09:40:31;;;;;;;28.52;14.80;;;;;;;1.75;100.00;97232.66;5021732;28;20121;-65
2022/01/02 09:42:57;;;;;;;30.73;13.82;;;;;;;1.76;100.00;97250.47;5023106;28;20621;-60
2022/01/02 09:45:23;;;;;;;127.30;19.45;;;;;;;1.56;100.00;97254.31;5015782;28;20538;-66
2022/01/02 09:47:51;;;;;;;43.90;14.57;;;;;;;1.67;100.00;97259.25;5021600;28;20080;-61
2022/01/02 09:50:18;;;;;;;33.58;13.82;;;;;;;1.74;100.00;97271.59;5014590;28;20103;-64
2022/01/02 09:52:44;;;;;;;143.70;17.52;;;;;;;1.63;100.00;97263.63;5020188;28;20033;-61
2022/01/02 09:55:10;;;;;;;51.15;14.70;;;;;;;1.80;100.00;97257.72;4968637;28;1337203;-61
2022/01/02 09:57:44;;;;;;;28.65;13.70;;;;;;;1.92;100.00;97259.94;5021356;28;20041;-66
2022/01/02 10:00:11;;;;;;;25.35;13.98;;;;;;;1.92;100.00;97259.94;5017240;28;20041;-63
2022/01/02 10:03:06;;;;;;;235.00;19.67;;;;;;;1.83;100.00;97270.59;5022016;28;20140;-64
2022/01/02 10:05:55;;;;;;;85.25;14.75;;;;;;;1.86;100.00;97272.72;5000554;28;20079;-64
2022/01/02 10:08:22;;;;;;;47.28;13.60;;;;;;;1.97;100.00;97270.66;5017051;28;20064;-61
2022/01/02 10:10:47;;;;;;;252.13;19.98;;;;;;;1.68;100.00;97270.88;5021769;28;20045;-64
2022/01/02 10:13:12;;;;;;;31.35;14.20;;;;;;;1.82;100.00;97269.00;5016691;28;20072;-64
2022/01/02 10:15:38;;;;;;;27.13;14.10;;;;;;;2.03;100.00;97265.97;5018627;28;20076;-64
2022/01/02 10:18:09;;;;;;;86.60;17.63;;;;;;;2.13;100.00;97262.28;5017555;28;20044;-69
2022/01/02 10:20:38;;;;;;;40.00;14.73;;;;;;;2.17;100.00;97266.78;5020849;28;20042;-63
2022/01/02 10:23:16;;;;;;;28.95;13.43;;;;;;;2.29;100.00;97260.91;5019791;28;20052;-69
2022/01/02 10:25:49;;;;;;;48.70;12.60;;;;;;;2.33;100.00;97258.41;5005598;28;20172;-62
2022/01/02 10:28:26;;;;;;;25.17;13.77;;;;;;;2.53;100.00;97263.41;5015385;28;20037;-65
2022/01/02 10:31:18;;;;;;;21.35;12.52;;;;;;;2.53;100.00;97265.31;5021136;28;20120;-62
2022/01/02 10:33:56;;;;;;;27.42;12.75;;;;;;;2.81;100.00;97249.88;5014656;28;20046;-62
2022/01/02 10:36:26;;;;;;;85.72;12.95;;;;;;;2.88;100.00;97247.53;5015736;28;20545;-62
2022/01/02 10:39:01;;;;;;;22.40;11.95;;;;;;;2.92;100.00;97245.03;5021179;28;20094;-64
2022/01/02 10:41:41;;;;;;;21.70;12.00;;;;;;;3.11;100.00;97237.59;5011631;28;20038;-62
2022/01/02 10:44:32;;;;;;;91.93;13.00;;;;;;;3.12;100.00;97235.69;5015411;28;20068;-70
2022/01/02 10:47:06;;;;;;;30.65;11.65;;;;;;;2.99;100.00;97223.78;5020710;28;20037;-65
2022/01/02 10:49:59;;;;;;;25.92;12.20;;;;;;;3.17;100.00;97239.09;5014288;28;20037;-63
2022/01/02 10:52:42;;;;;;;29.73;12.32;;;;;;;3.47;100.00;97244.91;5016617;28;20037;-65
2022/01/02 10:55:24;;;;;;;20.33;11.32;;;;;;;3.57;100.00;97243.88;4997274;28;20045;-65
2022/01/02 10:57:52;;;;;;;43.00;17.98;;;;;;;3.71;100.00;97247.31;5019664;28;20398;-63
2022/01/02 11:00:29;;;;;;;32.58;11.63;;;;;;;3.79;100.00;97240.34;5016608;28;20041;-63
2022/01/02 11:02:54;;;;;;;21.35;11.35;;;;;;;3.76;100.00;97239.06;5019374;28;20076;-64
2022/01/02 11:05:21;;;;;;;52.42;12.10;;;;;;;3.40;100.00;97239.94;5015189;28;20079;-66
2022/01/02 11:07:49;;;;;;;24.17;13.25;;;;;;;3.24;100.00;97236.75;5013954;28;20069;-59
2022/01/02 11:10:22;;;;;;;20.38;11.68;;;;;;;3.49;100.00;97236.47;5015501;28;20041;-62
2022/01/02 11:12:50;;;;;;;28.00;14.43;;;;;;;3.39;100.00;97243.72;5020869;28;20049;-65
2022/01/02 11:15:19;;;;;;;24.67;13.80;;;;;;;3.43;100.00;97228.47;5013665;28;20124;-67
2022/01/02 11:17:45;;;;;;;22.25;13.00;;;;;;;3.47;100.00;97225.16;5019768;28;20494;-63
2022/01/02 11:20:22;;;;;;;22.52;13.15;;;;;;;3.52;100.00;97217.69;5015777;28;20045;-64
2022/01/02 11:23:07;;;;;;;44.10;14.45;;;;;;;3.49;100.00;97217.50;5018642;28;20080;-65